Time;durP1;ratioP1;P1;durP2;ratioP2;P2;SDS_P1;SDS_P2;PMS_P1;PMS_P2;Temp;Humidity;BMP_temperature;BMP_pressure;BME280_temperature;BME280_humidity;BME280_pressure;Samples;Min_cycle;Max_cycle;Signal;HPM_P1;HPM_P2
2021/03/18 00:00:55;;;;;;;5.25;4.50;;;1.50;99.90;;;;;;5000631;28;20228;-83
2021/03/18 00:03:25;;;;;;;5.18;4.68;;;1.60;99.90;;;;;;5000554;28;20600;-83
2021/03/18 00:05:52;;;;;;;7.03;5.50;;;1.60;99.90;;;;;;5000338;28;20212;-82
2021/03/18 00:08:20;;;;;;;5.72;4.72;;;1.60;99.90;;;;;;4999938;28;20210;-82
2021/03/18 00:10:48;;;;;;;7.28;5.45;;;1.70;99.90;;;;;;4999941;28;20254;-83
2021/03/18 00:13:15;;;;;;;7.18;4.90;;;1.60;99.90;;;;;;4999299;28;20270;-83
2021/03/18 00:15:43;;;;;;;5.53;5.03;;;1.70;99.90;;;;;;4999593;28;20254;-83
2021/03/18 00:18:11;;;;;;;6.47;5.97;;;1.70;99.90;;;;;;4999150;28;20219;-84
2021/03/18 00:20:38;;;;;;;7.28;6.68;;;1.70;99.90;;;;;;4999534;28;20317;-83
2021/03/18 00:23:05;;;;;;;5.38;4.88;;;1.80;99.90;;;;;;4999916;28;20210;-84
2021/03/18 00:25:35;;;;;;;6.38;5.88;;;1.80;99.90;;;;;;4999812;28;20231;-83
2021/03/18 00:28:03;;;;;;;6.03;4.45;;;1.70;99.90;;;;;;4999846;28;20211;-83
2021/03/18 00:30:30;;;;;;;7.95;5.25;;;1.70;99.90;;;;;;4998886;28;20251;-83
2021/03/18 00:32:57;;;;;;;6.78;6.07;;;1.70;99.90;;;;;;4998662;28;20266;-83
2021/03/18 00:35:24;;;;;;;5.78;5.13;;;1.60;99.90;;;;;;4998924;28;20201;-83
2021/03/18 00:37:52;;;;;;;9.90;5.82;;;1.60;99.90;;;;;;4998621;28;20205;-83
2021/03/18 00:40:21;;;;;;;7.03;6.32;;;1.70;99.90;;;;;;4997988;28;20227;-83
2021/03/18 00:42:49;;;;;;;7.32;6.75;;;1.80;99.90;;;;;;4998623;28;20211;-84
2021/03/18 00:45:18;;;;;;;6.50;5.95;;;1.70;99.90;;;;;;4998163;28;20228;-83
2021/03/18 00:47:44;;;;;;;6.25;5.75;;;1.60;99.90;;;;;;4998639;28;20203;-84
2021/03/18 00:50:13;;;;;;;7.13;6.32;;;1.60;99.90;;;;;;4997914;28;20733;-82
2021/03/18 00:52:40;;;;;;;6.50;5.82;;;1.60;99.90;;;;;;4998503;28;20209;-85
2021/03/18 00:55:07;;;;;;;6.10;5.63;;;1.80;99.90;;;;;;4998571;28;20211;-83
2021/03/18 00:57:33;;;;;;;7.32;4.80;;;1.90;99.90;;;;;;4998321;28;20212;-82
2021/03/18 01:00:00;;;;;;;6.30;5.80;;;1.80;99.90;;;;;;4997859;28;20235;-83
2021/03/18 01:02:27;;;;;;;6.00;5.40;;;1.90;99.90;;;;;;4997720;28;20211;-83
2021/03/18 01:04:53;;;;;;;6.70;5.35;;;2.00;99.90;;;;;;4997708;28;20597;-80
2021/03/18 01:07:19;;;;;;;11.32;7.30;;;2.00;99.90;;;;;;4997271;28;20205;-82
2021/03/18 01:09:45;;;;;;;6.10;5.60;;;1.90;99.90;;;;;;4997556;28;20359;-83
2021/03/18 01:12:12;;;;;;;5.72;5.00;;;2.00;99.90;;;;;;4997371;28;20223;-83
2021/03/18 01:14:38;;;;;;;7.45;5.57;;;1.90;99.90;;;;;;4996998;28;20589;-84
2021/03/18 01:17:04;;;;;;;9.38;4.63;;;1.90;99.90;;;;;;4996702;28;20209;-84
2021/03/18 01:19:31;;;;;;;6.88;5.35;;;1.90;99.90;;;;;;4996812;28;20718;-84
2021/03/18 01:21:58;;;;;;;7.00;5.95;;;1.80;99.90;;;;;;4996197;28;20223;-83
2021/03/18 01:24:24;;;;;;;5.65;5.15;;;1.80;99.90;;;;;;4996282;28;20588;-84
2021/03/18 01:26:50;;;;;;;7.15;5.13;;;1.70;99.90;;;;;;4996945;28;20204;-84
2021/03/18 01:29:16;;;;;;;6.20;5.57;;;1.70;99.90;;;;;;4996162;28;20203;-84
2021/03/18 01:31:43;;;;;;;7.32;5.32;;;1.60;99.90;;;;;;4996070;28;20236;-84
2021/03/18 01:34:10;;;;;;;5.20;4.75;;;1.60;99.90;;;;;;4995886;28;20211;-84
2021/03/18 01:36:38;;;;;;;4.85;4.50;;;1.70;99.90;;;;;;4996211;28;20207;-84
2021/03/18 01:39:06;;;;;;;4.72;4.40;;;1.60;99.90;;;;;;4996463;28;20211;-82
2021/03/18 01:41:32;;;;;;;4.72;4.32;;;1.60;99.90;;;;;;4996546;28;20231;-81
2021/03/18 01:43:59;;;;;;;5.38;4.88;;;1.60;99.90;;;;;;4996575;28;20205;-82
2021/03/18 01:46:25;;;;;;;5.68;5.28;;;1.60;99.90;;;;;;4996919;28;20232;-82
2021/03/18 01:48:51;;;;;;;5.22;4.72;;;1.50;99.90;;;;;;4995455;28;20209;-81
2021/03/18 01:51:19;;;;;;;8.85;5.53;;;1.40;99.90;;;;;;4995749;28;20244;-82
2021/03/18 01:53:47;;;;;;;5.15;4.20;;;1.50;99.90;;;;;;4996130;28;20740;-82
2021/03/18 01:56:13;;;;;;;4.65;4.25;;;1.50;99.90;;;;;;4995975;28;20211;-81
2021/03/18 01:58:42;;;;;;;7.40;4.60;;;1.50;99.90;;;;;;4995708;28;20208;-82
2021/03/18 02:01:12;;;;;;;4.47;4.07;;;1.60;99.90;;;;;;4996201;28;20228;-80
2021/03/18 02:03:39;;;;;;;6.25;5.65;;;1.50;99.90;;;;;;4997919;28;20269;-82
2021/03/18 02:06:07;;;;;;;5.55;5.03;;;1.40;99.90;;;;;;4997273;28;20887;-82
2021/03/18 02:08:33;;;;;;;6.80;4.97;;;1.50;99.90;;;;;;4998540;28;20214;-81
2021/03/18 02:11:00;;;;;;;8.43;4.75;;;1.50;99.90;;;;;;5002868;28;20235;-82
2021/03/18 02:13:27;;;;;;;7.45;4.65;;;1.50;99.90;;;;;;5000990;28;20240;-81
2021/03/18 02:15:56;;;;;;;5.72;4.75;;;1.40;99.90;;;;;;5000729;28;20204;-82
2021/03/18 02:18:33;;;;;;;5.43;5.00;;;1.50;99.90;;;;;;4996248;28;20215;-84
2021/03/18 02:21:39;;;;;;;4.35;3.95;;;1.50;99.90;;;;;;4996440;28;20239;-82
2021/03/18 02:24:36;;;;;;;6.45;4.40;;;1.40;99.90;;;;;;4996401;28;20207;-83
2021/03/18 02:27:43;;;;;;;5.20;4.72;;;1.40;99.90;;;;;;4996635;28;20581;-82
2021/03/18 02:30:39;;;;;;;8.70;4.80;;;1.40;99.90;;;;;;4996818;28;20230;-82
2021/03/18 02:33:26;;;;;;;6.35;4.28;;;1.40;99.90;;;;;;4996090;28;20232;-82
2021/03/18 02:35:58;;;;;;;4.95;4.55;;;1.50;99.90;;;;;;4996899;28;20204;-82
2021/03/18 02:38:31;;;;;;;4.55;4.15;;;1.70;99.90;;;;;;4996737;28;20211;-82
2021/03/18 02:41:01;;;;;;;6.68;5.10;;;1.60;99.90;;;;;;4995982;28;20301;-84
2021/03/18 02:43:29;;;;;;;5.65;4.72;;;1.60;99.90;;;;;;4995620;28;20203;-80
2021/03/18 02:46:02;;;;;;;5.03;4.40;;;1.70;99.90;;;;;;4996174;28;20239;-82
2021/03/18 02:48:31;;;;;;;5.35;4.85;;;1.70;99.90;;;;;;4996039;28;20270;-82
2021/03/18 02:50:58;;;;;;;6.78;6.28;;;1.80;99.90;;;;;;4995887;28;20223;-80
2021/03/18 02:53:26;;;;;;;7.68;5.00;;;1.60;99.90;;;;;;4996043;28;20239;-81
2021/03/18 02:55:54;;;;;;;5.93;5.43;;;1.60;99.90;;;;;;4996145;28;20560;-82
2021/03/18 02:58:25;;;;;;;6.70;4.30;;;1.60;99.90;;;;;;4996178;28;20219;-82
2021/03/18 03:00:55;;;;;;;7.03;4.88;;;1.70;99.90;;;;;;4999501;28;20239;-82
2021/03/18 03:03:22;;;;;;;4.47;4.18;;;1.80;99.90;;;;;;4999488;28;20224;-81
2021/03/18 03:05:52;;;;;;;9.15;4.97;;;1.90;99.90;;;;;;4999526;28;20231;-82
2021/03/18 03:08:21;;;;;;;5.50;5.00;;;2.00;99.90;;;;;;4999355;28;20220;-82
2021/03/18 03:10:49;;;;;;;5.63;4.97;;;2.00;99.90;;;;;;4998867;28;20606;-79
2021/03/18 03:13:16;;;;;;;4.90;4.50;;;2.00;99.90;;;;;;4998960;28;20258;-82
2021/03/18 03:15:43;;;;;;;5.45;4.95;;;2.10;99.90;;;;;;5000021;28;20205;-81
2021/03/18 03:18:11;;;;;;;7.38;5.13;;;2.10;99.90;;;;;;4999423;28;20675;-81
2021/03/18 03:20:38;;;;;;;5.28;4.88;;;2.00;99.90;;;;;;5000101;28;20610;-82
2021/03/18 03:23:06;;;;;;;5.10;4.60;;;2.00;99.90;;;;;;4999194;28;20208;-82
2021/03/18 03:25:37;;;;;;;5.05;4.60;;;2.00;99.90;;;;;;4999861;28;20306;-82
2021/03/18 03:28:05;;;;;;;5.10;4.60;;;2.10;99.90;;;;;;4999672;28;20214;-82
2021/03/18 03:30:32;;;;;;;5.82;4.55;;;2.10;99.90;;;;;;4999930;28;20231;-82
2021/03/18 03:32:58;;;;;;;3.97;3.67;;;2.10;99.90;;;;;;4999339;28;20223;-80
2021/03/18 03:35:25;;;;;;;6.97;4.35;;;2.20;99.90;;;;;;4999188;28;20670;-82
2021/03/18 03:37:51;;;;;;;5.72;4.30;;;2.20;99.90;;;;;;4998818;28;20279;-84
2021/03/18 03:40:19;;;;;;;5.20;4.70;;;2.10;99.90;;;;;;4999207;28;20239;-82
2021/03/18 03:42:47;;;;;;;5.05;4.55;;;2.20;99.90;;;;;;4999178;28;20231;-83
2021/03/18 03:45:16;;;;;;;5.28;4.65;;;2.10;99.90;;;;;;4999890;28;20227;-82
2021/03/18 03:47:46;;;;;;;4.82;4.43;;;2.10;99.90;;;;;;4999428;28;20572;-82
2021/03/18 03:50:16;;;;;;;5.20;4.50;;;2.00;99.90;;;;;;4999558;28;20232;-82
2021/03/18 03:52:48;;;;;;;5.00;4.50;;;2.10;99.90;;;;;;4999312;28;20212;-82
2021/03/18 03:55:25;;;;;;;8.27;4.32;;;2.10;99.90;;;;;;4999175;28;20211;-84
2021/03/18 03:57:58;;;;;;;5.35;4.85;;;2.20;99.90;;;;;;4998348;28;20222;-84
2021/03/18 04:00:25;;;;;;;4.53;4.03;;;2.20;99.90;;;;;;4998634;28;20631;-84
2021/03/18 04:02:52;;;;;;;3.92;3.40;;;2.20;99.90;;;;;;4998425;28;20219;-84
2021/03/18 04:05:19;;;;;;;5.15;4.65;;;2.20;99.90;;;;;;4998865;28;20236;-85
2021/03/18 04:07:47;;;;;;;4.40;4.00;;;2.30;99.90;;;;;;4999515;28;20583;-85
2021/03/18 04:10:14;;;;;;;4.75;4.35;;;2.20;99.90;;;;;;4997907;28;20228;-85
2021/03/18 04:12:44;;;;;;;5.20;4.70;;;2.30;99.90;;;;;;4998094;28;20208;-84
2021/03/18 04:15:15;;;;;;;5.28;3.50;;;2.40;99.90;;;;;;4998578;28;20210;-84
2021/03/18 04:17:48;;;;;;;4.68;4.20;;;2.30;99.90;;;;;;4998164;28;20213;-84
2021/03/18 04:20:17;;;;;;;5.18;3.90;;;2.10;99.90;;;;;;4998449;28;20229;-83
2021/03/18 04:22:49;;;;;;;5.05;4.55;;;2.00;99.90;;;;;;4998425;28;20207;-83
2021/03/18 04:25:17;;;;;;;9.98;4.10;;;2.20;99.90;;;;;;4999406;28;20225;-83
2021/03/18 04:27:44;;;;;;;4.95;4.47;;;2.20;99.90;;;;;;4999801;28;20212;-82
2021/03/18 04:30:18;;;;;;;4.43;4.03;;;2.30;99.90;;;;;;4999219;28;20223;-83
2021/03/18 04:32:46;;;;;;;6.95;3.97;;;2.30;99.90;;;;;;4999309;28;20208;-83
2021/03/18 04:35:13;;;;;;;4.80;4.28;;;2.30;99.90;;;;;;4999359;28;20202;-82
2021/03/18 04:37:40;;;;;;;5.88;4.00;;;2.40;99.90;;;;;;4999329;28;20209;-82
2021/03/18 04:40:10;;;;;;;4.18;3.85;;;2.40;99.90;;;;;;4998965;28;20272;-83
2021/03/18 04:42:37;;;;;;;4.80;3.58;;;2.40;99.90;;;;;;4998728;28;20212;-82
2021/03/18 04:45:04;;;;;;;4.32;4.03;;;2.40;99.90;;;;;;4998552;28;20777;-81
2021/03/18 04:47:33;;;;;;;4.20;3.55;;;2.40;99.90;;;;;;4999054;28;20575;-85
2021/03/18 04:50:00;;;;;;;4.90;4.25;;;2.30;99.90;;;;;;4998203;28;20228;-85
2021/03/18 04:52:26;;;;;;;4.45;3.95;;;2.10;99.90;;;;;;4997283;28;20237;-84
2021/03/18 04:54:52;;;;;;;7.45;5.15;;;2.10;99.90;;;;;;4997792;28;20208;-84
2021/03/18 04:57:21;;;;;;;7.45;5.43;;;2.10;99.90;;;;;;4998051;28;20246;-85
2021/03/18 04:59:51;;;;;;;5.40;3.78;;;2.10;99.90;;;;;;4997333;28;20251;-84
2021/03/18 05:02:18;;;;;;;5.63;4.93;;;2.10;99.90;;;;;;4997871;28;20209;-83
2021/03/18 05:04:46;;;;;;;5.65;3.53;;;2.20;99.90;;;;;;4997760;28;20215;-82
2021/03/18 05:07:14;;;;;;;6.90;5.68;;;2.10;99.90;;;;;;5002527;28;20215;-82
2021/03/18 05:09:42;;;;;;;4.53;4.13;;;2.10;99.90;;;;;;5002997;28;20215;-83
2021/03/18 05:12:09;;;;;;;5.38;4.07;;;2.10;99.90;;;;;;5002497;28;20216;-83
2021/03/18 05:14:36;;;;;;;4.38;4.07;;;2.00;99.90;;;;;;4999061;28;20216;-83
2021/03/18 05:17:03;;;;;;;5.38;4.93;;;2.00;99.90;;;;;;4998315;28;20204;-83
2021/03/18 05:19:30;;;;;;;4.40;3.85;;;1.90;99.90;;;;;;4997803;28;20294;-83
2021/03/18 05:21:57;;;;;;;4.90;3.63;;;1.90;99.90;;;;;;4996080;28;20211;-83
2021/03/18 05:24:25;;;;;;;3.28;3.08;;;1.80;99.90;;;;;;4998254;28;20212;-81
2021/03/18 05:26:51;;;;;;;7.45;5.25;;;1.70;99.90;;;;;;4997733;28;20228;-83
2021/03/18 05:29:18;;;;;;;4.38;3.83;;;1.70;99.90;;;;;;4997373;28;20215;-83
2021/03/18 05:31:45;;;;;;;3.38;3.17;;;1.80;99.90;;;;;;4996831;28;20225;-80
2021/03/18 05:34:12;;;;;;;4.18;3.85;;;1.70;99.90;;;;;;4996858;28;20217;-83
2021/03/18 05:36:38;;;;;;;4.35;3.80;;;1.80;99.90;;;;;;4997045;28;20216;-82
2021/03/18 05:39:06;;;;;;;5.32;3.97;;;1.80;99.90;;;;;;4997036;28;20704;-82
2021/03/18 05:41:33;;;;;;;4.13;3.72;;;1.80;99.90;;;;;;4996584;28;20236;-82
2021/03/18 05:43:59;;;;;;;5.30;4.25;;;1.80;99.90;;;;;;4997201;28;20216;-82
2021/03/18 05:46:25;;;;;;;4.13;3.83;;;1.80;99.90;;;;;;4996939;28;20243;-83
2021/03/18 05:48:53;;;;;;;5.05;3.90;;;1.90;99.90;;;;;;4996694;28;20211;-82
2021/03/18 05:51:21;;;;;;;3.85;3.55;;;2.00;99.90;;;;;;4996960;28;20235;-81
2021/03/18 05:53:48;;;;;;;4.30;3.95;;;2.00;99.90;;;;;;4996731;28;20702;-82
2021/03/18 05:56:16;;;;;;;7.45;4.65;;;2.00;99.90;;;;;;4996963;28;20200;-83
2021/03/18 05:58:44;;;;;;;4.13;3.45;;;2.10;99.90;;;;;;4996938;28;20221;-82
2021/03/18 06:01:10;;;;;;;4.65;4.15;;;2.20;99.90;;;;;;4997584;28;20233;-80
2021/03/18 06:03:37;;;;;;;8.45;5.45;;;2.20;99.90;;;;;;4996720;28;20738;-83
2021/03/18 06:06:06;;;;;;;4.03;3.72;;;2.10;99.90;;;;;;4995364;28;20258;-83
2021/03/18 06:08:34;;;;;;;4.90;3.90;;;2.00;99.90;;;;;;4996105;28;20670;-83
2021/03/18 06:11:01;;;;;;;4.30;4.00;;;1.90;99.90;;;;;;4997373;28;20233;-82
2021/03/18 06:13:28;;;;;;;5.30;4.15;;;1.90;99.90;;;;;;4996582;28;20287;-83
2021/03/18 06:15:54;;;;;;;4.90;4.50;;;1.80;99.90;;;;;;4996559;28;20204;-83
2021/03/18 06:18:21;;;;;;;8.02;5.18;;;1.70;99.90;;;;;;4996148;28;20203;-83
2021/03/18 06:20:50;;;;;;;5.45;4.60;;;1.80;99.90;;;;;;4995923;28;20225;-83
2021/03/18 06:23:17;;;;;;;5.25;4.10;;;1.80;99.90;;;;;;4995886;28;20204;-84
2021/03/18 06:25:43;;;;;;;5.47;5.00;;;1.80;99.90;;;;;;4996593;28;20225;-82
2021/03/18 06:28:19;;;;;;;5.43;4.93;;;1.70;99.90;;;;;;4995940;28;20255;-83
2021/03/18 06:31:02;;;;;;;5.85;4.93;;;1.70;99.90;;;;;;4995915;28;20224;-83
2021/03/18 06:33:30;;;;;;;6.40;4.55;;;1.80;99.90;;;;;;4994086;28;20205;-84
2021/03/18 06:35:57;;;;;;;4.57;4.22;;;1.90;99.90;;;;;;4996109;28;20208;-84
2021/03/18 06:38:28;;;;;;;5.93;4.93;;;1.80;99.90;;;;;;4995980;28;20205;-83
2021/03/18 06:40:54;;;;;;;5.90;5.40;;;1.70;99.90;;;;;;4995593;28;20831;-85
2021/03/18 06:43:35;;;;;;;7.63;5.00;;;1.80;99.90;;;;;;4995548;28;20211;-82
2021/03/18 06:46:17;;;;;;;5.78;5.28;;;1.70;99.90;;;;;;4995420;28;20255;-83
2021/03/18 06:48:43;;;;;;;7.90;6.03;;;1.80;99.90;;;;;;4995819;28;20214;-80
2021/03/18 06:51:18;;;;;;;5.20;4.70;;;1.80;99.90;;;;;;4995512;28;20298;-83
2021/03/18 06:53:44;;;;;;;6.03;5.25;;;1.90;99.90;;;;;;4995780;28;20203;-81
2021/03/18 06:56:28;;;;;;;8.38;4.97;;;2.00;99.90;;;;;;4995228;28;20204;-83
2021/03/18 06:58:56;;;;;;;6.32;4.95;;;2.00;99.90;;;;;;4995231;28;20215;-85
2021/03/18 07:01:24;;;;;;;5.28;4.78;;;2.10;99.90;;;;;;4993538;28;20223;-83
2021/03/18 07:03:51;;;;;;;7.15;5.32;;;2.20;99.90;;;;;;4995160;28;20213;-83
2021/03/18 07:06:48;;;;;;;5.90;4.97;;;2.30;99.90;;;;;;4996611;28;20239;-83
2021/03/18 07:09:14;;;;;;;6.43;4.95;;;2.40;99.90;;;;;;5002388;28;20706;-83
2021/03/18 07:11:47;;;;;;;7.57;5.32;;;2.20;99.90;;;;;;5003639;28;20443;-83
2021/03/18 07:14:14;;;;;;;5.70;5.20;;;2.20;99.90;;;;;;5014132;28;20707;-84
2021/03/18 07:16:45;;;;;;;7.22;6.30;;;2.20;99.90;;;;;;5009297;28;20215;-82
2021/03/18 07:19:23;;;;;;;7.55;6.13;;;2.10;99.90;;;;;;4999069;28;20295;-84
2021/03/18 07:21:53;;;;;;;7.18;5.78;;;2.00;99.90;;;;;;5002268;28;20260;-83
2021/03/18 07:24:25;;;;;;;7.65;6.10;;;2.10;99.90;;;;;;5009841;28;20308;-84
2021/03/18 07:26:51;;;;;;;6.13;5.53;;;2.00;99.90;;;;;;5004581;28;20228;-83
2021/03/18 07:38:53;;;;;;;7.53;6.82;;;2.90;99.90;;;;;;5000047;28;20246;-87
2021/03/18 07:58:07;;;;;;;7.15;6.10;;;3.60;99.90;;;;;;5063584;28;20269;-84
2021/03/18 08:00:37;;;;;;;5.80;5.05;;;3.90;99.90;;;;;;5064106;28;20247;-85
2021/03/18 08:03:28;;;;;;;6.80;5.15;;;4.00;99.90;;;;;;5063728;28;20209;-85
2021/03/18 08:05:54;;;;;;;6.43;5.90;;;4.00;99.90;;;;;;5063784;28;20209;-86
2021/03/18 08:08:37;;;;;;;7.70;6.22;;;4.20;99.90;;;;;;5064014;28;20210;-85
2021/03/18 08:11:04;;;;;;;7.57;6.53;;;4.30;99.90;;;;;;5062277;28;20221;-86
2021/03/18 08:13:36;;;;;;;7.60;6.18;;;4.50;99.90;;;;;;5063751;28;20255;-85
2021/03/18 08:16:05;;;;;;;8.77;6.75;;;4.60;99.90;;;;;;5064071;28;20591;-86
2021/03/18 08:18:39;;;;;;;7.18;6.50;;;4.80;99.90;;;;;;5064383;28;20209;-85
2021/03/18 08:21:11;;;;;;;7.07;6.28;;;5.00;99.90;;;;;;5064505;28;20256;-86
2021/03/18 08:23:58;;;;;;;7.22;5.72;;;5.10;99.90;;;;;;5063948;28;20216;-85
2021/03/18 08:26:49;;;;;;;8.50;7.18;;;5.20;99.90;;;;;;5064045;28;20698;-86
2021/03/18 08:29:19;;;;;;;7.50;6.80;;;5.40;99.90;;;;;;5064020;28;20210;-85
2021/03/18 08:31:58;;;;;;;11.80;6.60;;;5.60;99.90;;;;;;5064264;28;20232;-86
2021/03/18 08:34:45;;;;;;;7.18;6.28;;;5.80;99.90;;;;;;5063865;28;20212;-86
2021/03/18 08:37:13;;;;;;;9.55;6.68;;;6.00;99.90;;;;;;5064786;28;20201;-87
2021/03/18 08:39:50;;;;;;;6.75;6.03;;;6.30;99.90;;;;;;5064525;28;20224;-87
2021/03/18 08:42:37;;;;;;;5.93;5.38;;;6.40;99.90;;;;;;5064633;28;20227;-87
2021/03/18 08:45:10;;;;;;;6.63;5.22;;;6.60;99.90;;;;;;5063974;28;20208;-86
2021/03/18 08:47:38;;;;;;;6.78;6.10;;;6.80;99.90;;;;;;5063556;28;20213;-87
2021/03/18 08:50:07;;;;;;;6.50;5.70;;;6.90;99.90;;;;;;5064297;28;20244;-86
2021/03/18 08:52:39;;;;;;;7.53;6.10;;;6.90;99.90;;;;;;5064627;28;20217;-86
2021/03/18 08:55:07;;;;;;;7.97;6.70;;;6.90;99.90;;;;;;5064771;28;20205;-86
2021/03/18 08:57:35;;;;;;;7.07;5.88;;;7.00;99.90;;;;;;5065136;28;20216;-85
2021/03/18 09:00:13;;;;;;;5.75;5.25;;;7.10;99.90;;;;;;5064284;28;20699;-86
2021/03/18 09:02:39;;;;;;;7.70;5.80;;;7.30;98.30;;;;;;5065057;28;20240;-86
2021/03/18 09:05:10;;;;;;;6.57;5.50;;;7.40;97.20;;;;;;5065546;28;20269;-86
2021/03/18 09:07:37;;;;;;;6.15;5.57;;;7.40;98.00;;;;;;5065347;28;20193;-86
2021/03/18 09:10:13;;;;;;;7.10;5.82;;;7.30;97.10;;;;;;5064872;28;20257;-86
2021/03/18 09:12:45;;;;;;;8.18;5.50;;;7.20;97.50;;;;;;5065538;28;20240;-86
2021/03/18 09:15:22;;;;;;;10.40;6.78;;;7.40;98.10;;;;;;5064990;28;20348;-85
2021/03/18 09:17:52;;;;;;;8.82;8.13;;;7.50;98.00;;;;;;5064830;28;20220;-85
2021/03/18 09:20:21;;;;;;;6.55;5.72;;;7.60;98.70;;;;;;5064258;28;20268;-84
2021/03/18 09:22:48;;;;;;;6.25;5.70;;;7.50;97.10;;;;;;5063942;28;20244;-85
2021/03/18 09:25:15;;;;;;;7.05;5.93;;;7.50;97.30;;;;;;5063757;28;20215;-85
2021/03/18 09:27:44;;;;;;;8.73;7.25;;;7.40;96.50;;;;;;5065415;28;20209;-85
2021/03/18 09:30:28;;;;;;;7.40;5.68;;;7.40;96.90;;;;;;5064522;28;20324;-85
2021/03/18 09:32:56;;;;;;;6.22;5.50;;;7.40;96.70;;;;;;5065545;28;20194;-83
2021/03/18 09:35:23;;;;;;;6.57;5.35;;;7.10;96.60;;;;;;5065687;28;20229;-84
2021/03/18 09:37:56;;;;;;;5.43;4.93;;;7.20;96.50;;;;;;5063382;28;20206;-85
2021/03/18 09:40:32;;;;;;;4.95;4.50;;;6.90;95.80;;;;;;5062433;28;20226;-84
2021/03/18 09:42:58;;;;;;;5.55;5.05;;;6.80;95.70;;;;;;5063054;28;20212;-85
2021/03/18 09:45:28;;;;;;;6.07;5.47;;;6.60;95.80;;;;;;5062190;28;20206;-84
2021/03/18 09:47:54;;;;;;;9.32;5.70;;;6.50;96.30;;;;;;5062204;28;20269;-85
2021/03/18 09:50:24;;;;;;;6.30;5.80;;;6.20;95.90;;;;;;5062647;28;20289;-84
2021/03/18 09:53:08;;;;;;;7.80;6.35;;;6.10;96.50;;;;;;5063022;28;20213;-84
2021/03/18 09:55:34;;;;;;;7.65;6.93;;;6.00;96.80;;;;;;5062477;28;20211;-85
2021/03/18 09:58:11;;;;;;;8.32;6.53;;;5.90;97.70;;;;;;5061674;28;20213;-85
2021/03/18 10:00:39;;;;;;;6.60;5.55;;;5.60;98.10;;;;;;5061927;28;20291;-84
2021/03/18 10:03:06;;;;;;;5.78;5.03;;;5.50;98.20;;;;;;5061856;28;20209;-84
2021/03/18 10:05:33;;;;;;;7.75;6.60;;;5.20;98.10;;;;;;5061685;28;20233;-84
2021/03/18 10:08:01;;;;;;;12.07;6.25;;;5.20;99.10;;;;;;5060652;28;20206;-84
2021/03/18 10:10:28;;;;;;;6.40;5.80;;;5.10;99.30;;;;;;5061540;28;20293;-84
2021/03/18 10:12:56;;;;;;;8.35;7.57;;;5.00;99.80;;;;;;5061264;28;20212;-84
2021/03/18 10:15:24;;;;;;;7.50;5.50;;;5.00;99.90;;;;;;5061265;28;20212;-84
2021/03/18 10:17:53;;;;;;;7.35;5.45;;;4.90;99.90;;;;;;5061093;28;20212;-84
2021/03/18 10:20:21;;;;;;;6.93;6.25;;;5.00;99.90;;;;;;5060712;28;20217;-83
2021/03/18 10:22:51;;;;;;;10.50;7.25;;;5.00;99.90;;;;;;5061683;28;20209;-83
2021/03/18 10:25:19;;;;;;;6.10;5.47;;;5.10;99.90;;;;;;5061235;28;20217;-84
2021/03/18 10:27:48;;;;;;;7.57;5.88;;;5.20;99.90;;;;;;5060966;28;20247;-84
2021/03/18 10:30:18;;;;;;;8.98;6.65;;;5.40;99.90;;;;;;5060874;28;20234;-84
2021/03/18 10:33:08;;;;;;;8.07;5.93;;;5.40;99.50;;;;;;5061542;28;20233;-84
2021/03/18 10:35:38;;;;;;;9.02;5.68;;;5.40;98.90;;;;;;5061853;28;20217;-84
2021/03/18 10:38:06;;;;;;;6.38;4.70;;;5.60;99.20;;;;;;5062667;28;20665;-84
2021/03/18 10:40:39;;;;;;;6.30;4.78;;;5.60;98.60;;;;;;5060686;28;20324;-84
2021/03/18 10:43:21;;;;;;;5.10;4.78;;;5.50;97.90;;;;;;5060316;28;20214;-83
2021/03/18 10:45:48;;;;;;;6.80;4.95;;;5.70;98.80;;;;;;5060497;28;20230;-84
2021/03/18 10:48:21;;;;;;;6.25;4.63;;;5.90;98.30;;;;;;5060733;28;20216;-84
2021/03/18 10:50:48;;;;;;;6.53;5.38;;;6.20;97.30;;;;;;5061377;28;20225;-84
2021/03/18 10:53:15;;;;;;;5.90;5.22;;;6.00;95.70;;;;;;5061568;28;20281;-84
2021/03/18 10:55:44;;;;;;;5.78;4.60;;;6.10;96.20;;;;;;5061723;28;20213;-84
2021/03/18 10:58:16;;;;;;;5.15;4.40;;;6.20;96.30;;;;;;5061610;28;20210;-84
2021/03/18 11:00:44;;;;;;;5.00;4.50;;;6.40;95.90;;;;;;5061688;28;20316;-84
2021/03/18 11:03:14;;;;;;;5.82;4.70;;;6.40;95.20;;;;;;5062182;28;20209;-84
2021/03/18 11:05:49;;;;;;;4.13;3.40;;;6.50;95.90;;;;;;5060453;28;20221;-84
2021/03/18 11:08:17;;;;;;;3.97;3.58;;;6.50;95.80;;;;;;5059994;28;20205;-84
2021/03/18 11:10:47;;;;;;;4.63;4.22;;;6.60;96.50;;;;;;5060854;28;20218;-84
2021/03/18 11:13:18;;;;;;;5.57;4.60;;;6.30;95.70;;;;;;5060481;28;20261;-84
2021/03/18 11:15:58;;;;;;;6.40;3.70;;;6.50;96.50;;;;;;5060804;28;20208;-84
2021/03/18 11:18:39;;;;;;;4.05;3.63;;;6.90;97.40;;;;;;5060933;28;20275;-84
2021/03/18 11:21:25;;;;;;;4.82;3.70;;;7.20;94.80;;;;;;5068338;28;20244;-84
2021/03/18 11:23:53;;;;;;;4.45;4.05;;;7.50;96.70;;;;;;5072056;28;20616;-85
2021/03/18 11:26:21;;;;;;;6.47;3.72;;;7.90;99.00;;;;;;5070479;28;20232;-85
2021/03/18 11:28:51;;;;;;;3.95;3.58;;;8.30;96.20;;;;;;5072539;28;20209;-84
2021/03/18 11:31:19;;;;;;;4.63;4.22;;;8.60;94.90;;;;;;5072757;28;20293;-84
2021/03/18 11:33:46;;;;;;;4.30;4.00;;;9.00;95.20;;;;;;5071916;28;20213;-84
2021/03/18 11:36:16;;;;;;;3.53;3.22;;;9.20;93.00;;;;;;5073717;28;20209;-84
2021/03/18 11:38:43;;;;;;;4.10;3.70;;;9.50;93.90;;;;;;5072930;28;20201;-84
2021/03/18 11:41:12;;;;;;;3.75;3.42;;;9.80;92.90;;;;;;5072646;28;20230;-84
2021/03/18 11:43:38;;;;;;;3.90;3.45;;;10.00;89.00;;;;;;5072510;28;20316;-84
2021/03/18 11:46:05;;;;;;;3.78;3.45;;;10.20;86.80;;;;;;5072753;28;20241;-85
2021/03/18 11:48:32;;;;;;;4.70;4.30;;;10.40;90.10;;;;;;5073472;28;20202;-82
2021/03/18 11:50:58;;;;;;;4.43;4.10;;;10.60;89.80;;;;;;5073163;28;20597;-82
2021/03/18 11:53:26;;;;;;;4.43;4.00;;;10.60;85.00;;;;;;5071016;28;20210;-82
2021/03/18 11:55:53;;;;;;;4.50;3.88;;;10.10;83.10;;;;;;5072691;28;20273;-82
2021/03/18 11:58:19;;;;;;;4.78;3.83;;;10.00;86.70;;;;;;5072181;28;20205;-84
2021/03/18 12:00:45;;;;;;;4.22;3.88;;;10.20;86.80;;;;;;5070958;28;20248;-84
2021/03/18 12:03:13;;;;;;;3.42;2.95;;;10.10;84.60;;;;;;5073135;28;20209;-85
2021/03/18 12:05:41;;;;;;;4.25;3.85;;;9.90;84.00;;;;;;5071457;28;20273;-84
2021/03/18 12:08:08;;;;;;;3.97;3.67;;;9.00;80.70;;;;;;5071133;28;20238;-85
2021/03/18 12:10:36;;;;;;;3.40;3.20;;;9.00;82.80;;;;;;5070490;28;20329;-84
2021/03/18 12:13:04;;;;;;;3.45;3.08;;;8.80;80.20;;;;;;5070713;28;20210;-85
2021/03/18 12:15:31;;;;;;;3.95;3.33;;;8.80;81.80;;;;;;5070749;28;20310;-85
2021/03/18 12:17:57;;;;;;;6.35;5.75;;;8.80;82.80;;;;;;5070030;28;20630;-84
2021/03/18 12:20:26;;;;;;;3.47;3.20;;;9.20;86.60;;;;;;5070200;28;20289;-85
2021/03/18 12:22:53;;;;;;;4.82;4.38;;;9.90;84.80;;;;;;5070504;28;20694;-85
2021/03/18 12:25:20;;;;;;;5.90;4.93;;;10.90;83.00;;;;;;5069905;28;20239;-85
2021/03/18 12:27:48;;;;;;;4.60;4.10;;;11.50;81.50;;;;;;5069669;28;20525;-85
2021/03/18 12:30:34;;;;;;;3.90;3.60;;;12.30;82.90;;;;;;5071269;28;20517;-86
2021/03/18 12:36:14;;;;;;;2.50;2.40;;;12.90;75.70;;;;;;5068947;28;20436;-82
2021/03/18 12:38:40;;;;;;;3.73;3.43;;;12.60;71.00;;;;;;5071783;28;20446;-82
2021/03/18 12:41:09;;;;;;;3.47;3.27;;;12.50;71.50;;;;;;5084824;28;20470;-82
2021/03/18 12:43:42;;;;;;;3.70;3.10;;;12.50;78.20;;;;;;5084172;28;20476;-83
2021/03/18 12:46:11;;;;;;;5.00;4.20;;;12.70;81.70;;;;;;5084603;28;20504;-85
2021/03/18 12:48:38;;;;;;;4.80;4.40;;;12.40;80.20;;;;;;5084072;28;20823;-83
2021/03/18 12:51:04;;;;;;;4.87;4.43;;;11.70;83.90;;;;;;5083579;28;20468;-84
2021/03/18 12:53:30;;;;;;;4.50;4.07;;;11.10;88.20;;;;;;5083090;28;20515;-83
2021/03/18 12:55:58;;;;;;;12.52;4.65;;;10.50;89.00;;;;;;5082772;28;20210;-84
2021/03/18 12:58:26;;;;;;;5.70;5.03;;;9.90;87.20;;;;;;5083181;28;20291;-83
2021/03/18 13:00:53;;;;;;;4.00;3.70;;;9.30;90.10;;;;;;5083275;28;20229;-84
2021/03/18 13:03:20;;;;;;;5.95;4.60;;;8.50;90.50;;;;;;5082676;28;20223;-84
2021/03/18 13:05:46;;;;;;;4.93;4.43;;;8.00;92.30;;;;;;5082791;28;20205;-83
2021/03/18 13:08:12;;;;;;;5.93;4.43;;;7.50;93.40;;;;;;5082310;28;20215;-84
2021/03/18 13:10:38;;;;;;;4.68;4.05;;;7.00;94.00;;;;;;5081701;28;20639;-83
2021/03/18 13:13:05;;;;;;;4.60;4.10;;;6.50;95.00;;;;;;5082010;28;20573;-83
2021/03/18 13:15:31;;;;;;;5.90;5.00;;;6.40;95.70;;;;;;5081853;28;20197;-83
2021/03/18 13:17:58;;;;;;;6.30;5.65;;;6.10;96.10;;;;;;5080948;28;20249;-83
2021/03/18 13:20:25;;;;;;;5.00;4.60;;;6.00;97.00;;;;;;5080634;28;20229;-83
2021/03/18 13:22:51;;;;;;;4.63;4.22;;;5.80;98.00;;;;;;5080949;28;20209;-83
2021/03/18 13:25:21;;;;;;;4.85;3.90;;;5.60;98.50;;;;;;5081834;28;20205;-83
2021/03/18 13:27:48;;;;;;;5.88;4.75;;;5.50;99.00;;;;;;5082157;28;20255;-84
2021/03/18 13:30:17;;;;;;;4.95;4.45;;;5.50;99.90;;;;;;5082085;28;20224;-83
2021/03/18 13:32:44;;;;;;;5.78;5.28;;;5.50;99.90;;;;;;5066827;28;20205;-84
2021/03/18 13:35:11;;;;;;;5.05;4.55;;;5.50;99.80;;;;;;5060468;28;20542;-83
2021/03/18 13:37:38;;;;;;;5.78;5.30;;;5.50;99.90;;;;;;5060436;28;20215;-84